createdAt,value
2023-02-02T00:04:31.733Z,0.64
2023-02-02T00:09:33.566Z,0.55
2023-02-02T00:14:38.538Z,0.46
2023-02-02T00:19:40.293Z,0.37
2023-02-02T00:24:42.038Z,0.34
2023-02-02T00:29:43.883Z,0.34
2023-02-02T00:34:46.856Z,0.37
2023-02-02T00:39:48.732Z,0.39
2023-02-02T00:45:09.030Z,0.40
2023-02-02T00:50:13.153Z,0.40
2023-02-02T00:55:15.741Z,0.41
2023-02-02T01:00:20.928Z,0.43
2023-02-02T01:05:23.393Z,0.46
2023-02-02T01:10:25.456Z,0.50
2023-02-02T01:15:27.391Z,0.55
2023-02-02T01:20:29.423Z,0.57
2023-02-02T01:25:32.550Z,0.62
2023-02-02T01:30:34.395Z,0.65
2023-02-02T01:35:36.131Z,0.71
2023-02-02T01:40:54.227Z,0.72
2023-02-02T01:45:58.819Z,0.74
2023-02-02T01:51:04.543Z,0.76
2023-02-02T01:56:08.151Z,0.79
2023-02-02T02:01:10.229Z,0.78
2023-02-02T02:06:16.908Z,0.77
2023-02-02T02:11:20.302Z,0.80
2023-02-02T02:16:29.326Z,0.86
2023-02-02T02:21:58.695Z,0.92
2023-02-02T02:27:17.809Z,0.96
2023-02-02T02:32:46.611Z,1.02
2023-02-02T02:37:51.506Z,1.11
2023-02-02T02:43:00.918Z,1.19
2023-02-02T02:48:03.400Z,1.24
2023-02-02T02:53:09.987Z,1.30
2023-02-02T02:58:36.132Z,1.35
2023-02-02T03:03:45.366Z,1.36
2023-02-02T03:08:53.638Z,1.38
2023-02-02T03:13:56.189Z,1.41
2023-02-02T03:18:57.957Z,1.42
2023-02-02T03:24:00.409Z,1.42
2023-02-02T03:29:02.524Z,1.44
2023-02-02T03:34:04.278Z,1.44
2023-02-02T03:39:05.952Z,1.43
2023-02-02T03:44:07.605Z,1.44
2023-02-02T03:49:09.362Z,1.46
2023-02-02T03:54:11.220Z,1.49
2023-02-02T03:59:12.881Z,1.47
2023-02-02T04:04:14.845Z,1.48
2023-02-02T04:09:16.590Z,1.49
2023-02-02T04:14:18.292Z,1.54
2023-02-02T04:19:20.306Z,1.55
2023-02-02T04:24:22.089Z,1.55
2023-02-02T04:29:23.841Z,1.59
2023-02-02T04:34:25.766Z,1.63
2023-02-02T04:39:27.483Z,1.65
2023-02-02T04:44:29.154Z,1.65
2023-02-02T04:49:31.052Z,1.68
2023-02-02T04:54:33.625Z,1.71
2023-02-02T04:59:35.301Z,1.72
2023-02-02T05:04:37.154Z,1.69
2023-02-02T05:09:38.907Z,1.70
2023-02-02T05:14:40.590Z,1.72
2023-02-02T05:19:42.530Z,1.73
2023-02-02T05:24:44.471Z,1.74
2023-02-02T05:29:48.064Z,1.78
2023-02-02T05:34:49.750Z,1.82
2023-02-02T05:39:53.638Z,1.85
2023-02-02T05:44:55.379Z,1.84
2023-02-02T05:49:57.125Z,1.85
2023-02-02T05:54:58.799Z,1.86
2023-02-02T06:00:00.504Z,1.87
2023-02-02T06:05:02.695Z,1.85
2023-02-02T06:10:05.431Z,1.85
2023-02-02T06:15:07.801Z,1.86
2023-02-02T06:20:10.043Z,1.85
2023-02-02T06:25:11.697Z,1.83
2023-02-02T06:30:14.035Z,1.82
2023-02-02T06:35:16.171Z,1.73
2023-02-02T06:40:18.155Z,1.61
2023-02-02T06:45:19.842Z,1.52
2023-02-02T06:50:21.667Z,1.45
2023-02-02T06:55:23.585Z,1.48
2023-02-02T07:00:26.719Z,1.46
2023-02-02T07:05:30.708Z,1.44
2023-02-02T07:11:13.314Z,1.45
2023-02-02T07:15:57.208Z,1.48
2023-02-02T07:21:00.585Z,1.50
2023-02-02T07:26:05.055Z,1.56
2023-02-02T07:31:15.689Z,1.66
2023-02-02T07:36:19.969Z,1.74
2023-02-02T07:41:22.374Z,1.73
2023-02-02T07:46:26.085Z,1.75
2023-02-02T07:51:27.956Z,1.84
2023-02-02T07:56:29.680Z,1.94
2023-02-02T08:01:31.527Z,2.04
2023-02-02T08:06:38.227Z,2.13
2023-02-02T08:11:40.411Z,2.20
2023-02-02T08:16:42.145Z,2.25
2023-02-02T08:21:43.875Z,2.31
2023-02-02T08:26:45.716Z,2.43
2023-02-02T08:31:47.460Z,2.58
2023-02-02T08:36:49.467Z,2.69
2023-02-02T08:41:54.419Z,2.79
2023-02-02T08:46:56.371Z,2.80
2023-02-02T08:51:59.171Z,2.67
2023-02-02T08:57:00.877Z,2.48
2023-02-02T09:02:03.203Z,2.27
2023-02-02T09:07:05.077Z,2.04
2023-02-02T09:12:07.060Z,1.91
2023-02-02T09:17:08.729Z,1.83
2023-02-02T09:22:10.595Z,1.74
2023-02-02T09:27:12.252Z,1.68
2023-02-02T09:32:14.460Z,1.65
2023-02-02T09:37:16.289Z,1.69
2023-02-02T09:42:31.535Z,1.82
2023-02-02T09:47:56.221Z,2.02
2023-02-02T09:53:20.952Z,2.20
2023-02-02T09:58:31.213Z,2.31
2023-02-02T10:04:01.403Z,2.36
2023-02-02T10:09:53.075Z,2.46
2023-02-02T10:15:24.471Z,2.58
2023-02-02T10:20:47.823Z,2.64
2023-02-02T10:25:57.337Z,2.80
2023-02-02T10:31:01.979Z,2.93
2023-02-02T10:36:15.901Z,2.95
2023-02-02T10:41:56.401Z,3.13
2023-02-02T10:47:01.230Z,3.26
2023-02-02T10:52:15.508Z,3.51
2023-02-02T10:57:25.567Z,3.63
2023-02-02T11:02:27.358Z,3.70
2023-02-02T11:07:29.051Z,3.79
2023-02-02T11:12:34.194Z,3.71
2023-02-02T11:17:36.149Z,3.68
2023-02-02T11:22:38.715Z,3.75
2023-02-02T11:27:42.861Z,3.84
2023-02-02T11:32:47.859Z,3.88
2023-02-02T11:38:07.139Z,3.77
2023-02-02T11:43:20.283Z,3.58
2023-02-02T11:48:27.175Z,3.33
2023-02-02T11:53:30.861Z,3.34
2023-02-02T11:58:55.394Z,3.51
2023-02-02T12:03:59.663Z,3.54
2023-02-02T12:09:09.851Z,3.51
2023-02-02T12:14:26.810Z,3.44
2023-02-02T12:19:40.806Z,3.44
2023-02-02T12:24:49.916Z,3.49
2023-02-02T12:30:12.600Z,3.59
2023-02-02T12:35:56.813Z,3.57
2023-02-02T12:41:29.587Z,3.36
2023-02-02T12:46:59.738Z,3.43
2023-02-02T12:52:09.458Z,3.70
2023-02-02T12:57:20.023Z,3.94
2023-02-02T13:02:38.924Z,4.19
2023-02-02T13:07:47.665Z,4.17
2023-02-02T13:12:58.956Z,4.42
2023-02-02T13:18:04.927Z,4.40
2023-02-02T13:23:14.320Z,4.34
2023-02-02T13:28:30.537Z,4.30
2023-02-02T13:33:35.430Z,4.31
2023-02-02T13:38:42.189Z,4.31
2023-02-02T13:43:47.084Z,4.18
2023-02-02T13:49:10.942Z,4.06
2023-02-02T13:54:25.200Z,3.92
2023-02-02T13:59:48.985Z,3.82
2023-02-02T14:05:01.590Z,3.78
2023-02-02T14:10:04.469Z,3.82
2023-02-02T14:15:07.072Z,3.86
2023-02-02T14:20:40.973Z,3.86
2023-02-02T14:25:42.596Z,3.90
2023-02-02T14:30:44.275Z,4.00
2023-02-02T14:35:45.876Z,4.06
2023-02-02T14:41:00.244Z,3.99
2023-02-02T14:46:14.176Z,3.87
2023-02-02T14:51:26.742Z,3.68
2023-02-02T14:56:56.008Z,3.50
2023-02-02T15:02:00.783Z,3.34
2023-02-02T15:07:24.697Z,3.18
2023-02-02T15:12:37.296Z,3.07
2023-02-02T15:17:38.882Z,3.02
2023-02-02T15:22:47.752Z,2.93
2023-02-02T15:27:58.240Z,2.84
2023-02-02T15:33:07.542Z,2.73
2023-02-02T15:38:17.339Z,2.64
2023-02-02T15:43:19.961Z,2.59
2023-02-02T15:48:30.073Z,2.52
2023-02-02T15:53:40.933Z,2.45
2023-02-02T15:58:47.155Z,2.36
2023-02-02T16:04:00.335Z,2.33
2023-02-02T16:09:04.108Z,2.30
2023-02-02T16:14:14.154Z,2.25
2023-02-02T16:19:21.325Z,2.19
2023-02-02T16:24:28.363Z,2.15
2023-02-02T16:29:30.702Z,2.11
2023-02-02T16:34:42.049Z,2.07
2023-02-02T16:39:44.127Z,1.96
2023-02-02T16:44:45.825Z,1.86
2023-02-02T16:49:47.763Z,1.70
2023-02-02T16:54:55.338Z,1.63
2023-02-02T17:00:01.182Z,1.67
2023-02-02T17:05:16.577Z,1.70
2023-02-02T17:10:18.199Z,1.66
2023-02-02T17:15:20.121Z,1.58
2023-02-02T17:20:22.715Z,1.46
2023-02-02T17:25:29.802Z,1.35
2023-02-02T17:30:31.769Z,1.30
2023-02-02T17:35:51.647Z,1.21
2023-02-02T17:40:59.547Z,0.99
2023-02-02T17:46:04.058Z,1.02
2023-02-02T17:51:07.349Z,0.92
2023-02-02T17:56:09.293Z,0.83
2023-02-02T18:01:12.227Z,0.73
2023-02-02T18:06:13.999Z,0.63
2023-02-02T18:11:16.646Z,0.52
2023-02-02T18:16:19.828Z,0.45
2023-02-02T18:21:22.156Z,0.41
2023-02-02T18:26:24.444Z,0.36
2023-02-02T18:31:27.338Z,0.34
2023-02-02T18:36:29.559Z,0.37
2023-02-02T18:41:31.801Z,0.45
2023-02-02T18:46:34.273Z,0.51
2023-02-02T18:51:36.689Z,0.58
2023-02-02T18:56:38.819Z,0.63
2023-02-02T19:01:40.778Z,0.67
2023-02-02T19:07:01.245Z,0.72
2023-02-02T19:12:09.726Z,0.76
2023-02-02T19:17:14.756Z,0.78
2023-02-02T19:22:22.482Z,0.83
2023-02-02T19:27:28.759Z,0.84
2023-02-02T19:32:33.911Z,0.84
2023-02-02T19:37:43.572Z,0.83
2023-02-02T19:42:47.309Z,0.81
2023-02-02T19:47:51.407Z,0.77
2023-02-02T19:52:55.155Z,0.76
2023-02-02T19:58:11.349Z,0.75
2023-02-02T20:03:42.865Z,0.73
2023-02-02T20:08:44.925Z,0.71
2023-02-02T20:13:48.523Z,0.71
2023-02-02T20:18:55.401Z,0.70
2023-02-02T20:23:57.832Z,0.70
2023-02-02T20:29:03.715Z,0.64
2023-02-02T20:34:28.521Z,0.53
2023-02-02T20:39:41.125Z,0.41
2023-02-02T20:44:43.355Z,0.35
2023-02-02T20:49:45.999Z,0.32
2023-02-02T20:54:48.338Z,0.28
2023-02-02T20:59:57.579Z,0.23
2023-02-02T21:05:01.541Z,0.21
2023-02-02T21:10:03.407Z,0.04
2023-02-02T21:15:05.903Z,0.19
2023-02-02T21:20:08.581Z,0.18
2023-02-02T21:25:11.486Z,0.19
2023-02-02T21:30:14.232Z,0.19
2023-02-02T21:35:16.165Z,0.17
2023-02-02T21:40:30.352Z,0.18
2023-02-02T21:45:37.773Z,0.16
2023-02-02T21:50:41.574Z,0.11
2023-02-02T21:55:59.870Z,0.10
2023-02-02T22:01:17.020Z,0.05
2023-02-02T22:06:22.001Z,-0.05
2023-02-02T22:11:31.170Z,-0.17
2023-02-02T22:16:40.358Z,-0.16
2023-02-02T22:21:42.092Z,-0.10
2023-02-02T22:26:44.093Z,-0.07
2023-02-02T22:31:48.160Z,-0.05
2023-02-02T22:36:50.362Z,-0.03
2023-02-02T22:41:52.151Z,-0.02
2023-02-02T22:46:53.909Z,-0.05
2023-02-02T22:51:55.674Z,-0.11
2023-02-02T22:56:57.553Z,-0.15
2023-02-02T23:01:59.252Z,-0.21
2023-02-02T23:07:00.872Z,-0.30
2023-02-02T23:12:02.582Z,-0.39
2023-02-02T23:17:04.360Z,-0.47
2023-02-02T23:22:06.066Z,-0.49
2023-02-02T23:27:08.237Z,-0.50
2023-02-02T23:32:09.955Z,-0.50
2023-02-02T23:37:11.729Z,-0.48
2023-02-02T23:42:13.871Z,-0.44
2023-02-02T23:47:15.909Z,-0.43
2023-02-02T23:52:21.873Z,-0.37
2023-02-02T23:57:24.393Z,-0.28
